sensor_id;sensor_type;location;lat;lon;timestamp;P1;durP1;ratioP1;P2;durP2;ratioP2
53939;SDS011;39850;43.324;21.916;2023-04-03T00:15:20;20.0;;;17.0;;
53939;SDS011;39850;43.324;21.916;2023-04-03T00:19:57;20.0;;;17.0;;
53939;SDS011;39850;43.324;21.916;2023-04-03T00:24:33;20.0;;;17.0;;
53939;SDS011;39850;43.324;21.916;2023-04-03T00:29:10;18.0;;;16.0;;
53939;SDS011;39850;43.324;21.916;2023-04-03T00:33:47;18.0;;;16.0;;
53939;SDS011;39850;43.324;21.916;2023-04-03T00:38:23;17.0;;;15.0;;
53939;SDS011;39850;43.324;21.916;2023-04-03T00:43:17;17.0;;;15.0;;
53939;SDS011;39850;43.324;21.916;2023-04-03T00:48:01;17.0;;;15.0;;
53939;SDS011;39850;43.324;21.916;2023-04-03T00:52:41;17.0;;;15.0;;
53939;SDS011;39850;43.324;21.916;2023-04-03T00:57:19;17.0;;;15.0;;
53939;SDS011;39850;43.324;21.916;2023-04-03T01:01:59;17.0;;;15.0;;
53939;SDS011;39850;43.324;21.916;2023-04-03T01:36:33;15.0;;;13.0;;
53939;SDS011;39850;43.324;21.916;2023-04-03T01:41:10;15.0;;;13.0;;
53939;SDS011;39850;43.324;21.916;2023-04-03T01:45:47;16.0;;;14.0;;
53939;SDS011;39850;43.324;21.916;2023-04-03T01:50:24;16.0;;;14.0;;
53939;SDS011;39850;43.324;21.916;2023-04-03T01:55:01;16.0;;;14.0;;
53939;SDS011;39850;43.324;21.916;2023-04-03T01:59:38;16.0;;;14.0;;
53939;SDS011;39850;43.324;21.916;2023-04-03T02:04:15;16.0;;;14.0;;
53939;SDS011;39850;43.324;21.916;2023-04-03T02:08:52;16.0;;;14.0;;
53939;SDS011;39850;43.324;21.916;2023-04-03T02:13:29;16.0;;;14.0;;
53939;SDS011;39850;43.324;21.916;2023-04-03T02:18:08;16.0;;;14.0;;
53939;SDS011;39850;43.324;21.916;2023-04-03T02:22:47;16.0;;;14.0;;
53939;SDS011;39850;43.324;21.916;2023-04-03T02:59:44;15.0;;;13.0;;
53939;SDS011;39850;43.324;21.916;2023-04-03T03:04:21;15.0;;;13.0;;
53939;SDS011;39850;43.324;21.916;2023-04-03T03:08:58;16.0;;;14.0;;
53939;SDS011;39850;43.324;21.916;2023-04-03T03:13:36;16.0;;;14.0;;
53939;SDS011;39850;43.324;21.916;2023-04-03T03:18:14;16.0;;;13.0;;
53939;SDS011;39850;43.324;21.916;2023-04-03T03:22:50;16.0;;;13.0;;
53939;SDS011;39850;43.324;21.916;2023-04-03T03:27:28;16.0;;;14.0;;
53939;SDS011;39850;43.324;21.916;2023-04-03T03:32:05;16.0;;;14.0;;
53939;SDS011;39850;43.324;21.916;2023-04-03T03:36:41;17.0;;;13.0;;
53939;SDS011;39850;43.324;21.916;2023-04-03T03:41:18;17.0;;;13.0;;
53939;SDS011;39850;43.324;21.916;2023-04-03T04:18:12;13.0;;;11.0;;
53939;SDS011;39850;43.324;21.916;2023-04-03T04:22:49;13.0;;;11.0;;
53939;SDS011;39850;43.324;21.916;2023-04-03T04:27:26;14.0;;;12.0;;
53939;SDS011;39850;43.324;21.916;2023-04-03T04:32:04;14.0;;;12.0;;
53939;SDS011;39850;43.324;21.916;2023-04-03T04:36:42;16.0;;;13.0;;
53939;SDS011;39850;43.324;21.916;2023-04-03T04:41:22;16.0;;;13.0;;
53939;SDS011;39850;43.324;21.916;2023-04-03T04:46:10;16.0;;;13.0;;
53939;SDS011;39850;43.324;21.916;2023-04-03T04:50:47;16.0;;;13.0;;
53939;SDS011;39850;43.324;21.916;2023-04-03T04:55:24;16.0;;;13.0;;
53939;SDS011;39850;43.324;21.916;2023-04-03T05:00:00;17.0;;;13.0;;
53939;SDS011;39850;43.324;21.916;2023-04-03T05:04:37;17.0;;;13.0;;
53939;SDS011;39850;43.324;21.916;2023-04-03T05:36:53;17.0;;;13.0;;
53939;SDS011;39850;43.324;21.916;2023-04-03T05:41:30;17.0;;;13.0;;
53939;SDS011;39850;43.324;21.916;2023-04-03T05:46:16;17.0;;;14.0;;
53939;SDS011;39850;43.324;21.916;2023-04-03T05:50:56;17.0;;;14.0;;
53939;SDS011;39850;43.324;21.916;2023-04-03T05:55:34;17.0;;;14.0;;
53939;SDS011;39850;43.324;21.916;2023-04-03T06:00:17;17.0;;;13.0;;
53939;SDS011;39850;43.324;21.916;2023-04-03T06:04:55;17.0;;;13.0;;
53939;SDS011;39850;43.324;21.916;2023-04-03T06:09:33;16.0;;;13.0;;
53939;SDS011;39850;43.324;21.916;2023-04-03T06:14:11;16.0;;;13.0;;
53939;SDS011;39850;43.324;21.916;2023-04-03T06:18:49;14.0;;;12.0;;
53939;SDS011;39850;43.324;21.916;2023-04-03T06:23:25;14.0;;;12.0;;
53939;SDS011;39850;43.324;21.916;2023-04-03T07:00:35;16.0;;;15.0;;
53939;SDS011;39850;43.324;21.916;2023-04-03T07:05:13;16.0;;;15.0;;
53939;SDS011;39850;43.324;21.916;2023-04-03T07:09:50;16.0;;;15.0;;
53939;SDS011;39850;43.324;21.916;2023-04-03T07:14:27;16.0;;;15.0;;
53939;SDS011;39850;43.324;21.916;2023-04-03T07:19:04;17.0;;;15.0;;
53939;SDS011;39850;43.324;21.916;2023-04-03T07:23:40;17.0;;;15.0;;
53939;SDS011;39850;43.324;21.916;2023-04-03T07:28:24;18.0;;;16.0;;
53939;SDS011;39850;43.324;21.916;2023-04-03T07:33:00;18.0;;;16.0;;
53939;SDS011;39850;43.324;21.916;2023-04-03T07:37:37;18.0;;;16.0;;
53939;SDS011;39850;43.324;21.916;2023-04-03T07:42:14;18.0;;;16.0;;
53939;SDS011;39850;43.324;21.916;2023-04-03T08:19:17;26.0;;;24.0;;
53939;SDS011;39850;43.324;21.916;2023-04-03T08:23:54;26.0;;;24.0;;
53939;SDS011;39850;43.324;21.916;2023-04-03T08:28:31;26.0;;;26.0;;
53939;SDS011;39850;43.324;21.916;2023-04-03T08:33:10;26.0;;;26.0;;
53939;SDS011;39850;43.324;21.916;2023-04-03T08:37:48;27.0;;;27.0;;
53939;SDS011;39850;43.324;21.916;2023-04-03T08:43:36;27.0;;;27.0;;
53939;SDS011;39850;43.324;21.916;2023-04-03T08:48:42;27.0;;;28.0;;
53939;SDS011;39850;43.324;21.916;2023-04-03T08:53:35;27.0;;;28.0;;
53939;SDS011;39850;43.324;21.916;2023-04-03T08:58:22;27.0;;;29.0;;
53939;SDS011;39850;43.324;21.916;2023-04-03T09:03:01;27.0;;;29.0;;
53939;SDS011;39850;43.324;21.916;2023-04-03T09:41:22;34.0;;;34.0;;
53939;SDS011;39850;43.324;21.916;2023-04-03T09:46:31;34.0;;;34.0;;
53939;SDS011;39850;43.324;21.916;2023-04-03T09:51:15;34.0;;;33.0;;
53939;SDS011;39850;43.324;21.916;2023-04-03T09:55:52;34.0;;;33.0;;
53939;SDS011;39850;43.324;21.916;2023-04-03T10:00:38;34.0;;;32.0;;
53939;SDS011;39850;43.324;21.916;2023-04-03T10:05:39;34.0;;;32.0;;
53939;SDS011;39850;43.324;21.916;2023-04-03T10:10:23;32.0;;;32.0;;
53939;SDS011;39850;43.324;21.916;2023-04-03T10:15:01;32.0;;;32.0;;
53939;SDS011;39850;43.324;21.916;2023-04-03T10:20:09;31.0;;;31.0;;
53939;SDS011;39850;43.324;21.916;2023-04-03T10:25:32;31.0;;;31.0;;
53939;SDS011;39850;43.324;21.916;2023-04-03T11:01:19;45.0;;;40.0;;
53939;SDS011;39850;43.324;21.916;2023-04-03T11:06:12;45.0;;;40.0;;
53939;SDS011;39850;43.324;21.916;2023-04-03T11:11:13;47.0;;;40.0;;
53939;SDS011;39850;43.324;21.916;2023-04-03T11:15:59;47.0;;;40.0;;
53939;SDS011;39850;43.324;21.916;2023-04-03T11:21:06;46.0;;;40.0;;
53939;SDS011;39850;43.324;21.916;2023-04-03T11:26:17;46.0;;;40.0;;
53939;SDS011;39850;43.324;21.916;2023-04-03T11:31:58;48.0;;;40.0;;
53939;SDS011;39850;43.324;21.916;2023-04-03T11:37:33;46.0;;;40.0;;
53939;SDS011;39850;43.324;21.916;2023-04-03T11:42:37;46.0;;;40.0;;
53939;SDS011;39850;43.324;21.916;2023-04-03T12:17:27;31.0;;;30.0;;
53939;SDS011;39850;43.324;21.916;2023-04-03T12:22:17;31.0;;;30.0;;
53939;SDS011;39850;43.324;21.916;2023-04-03T12:27:32;32.0;;;31.0;;
53939;SDS011;39850;43.324;21.916;2023-04-03T12:32:54;32.0;;;31.0;;
53939;SDS011;39850;43.324;21.916;2023-04-03T12:39:13;31.0;;;30.0;;
53939;SDS011;39850;43.324;21.916;2023-04-03T12:44:54;31.0;;;30.0;;
53939;SDS011;39850;43.324;21.916;2023-04-03T12:49:49;31.0;;;31.0;;
53939;SDS011;39850;43.324;21.916;2023-04-03T12:54:38;31.0;;;31.0;;
53939;SDS011;39850;43.324;21.916;2023-04-03T12:59:24;30.0;;;30.0;;
53939;SDS011;39850;43.324;21.916;2023-04-03T13:04:03;30.0;;;30.0;;
53939;SDS011;39850;43.324;21.916;2023-04-03T13:42:34;31.0;;;33.0;;
53939;SDS011;39850;43.324;21.916;2023-04-03T13:47:23;31.0;;;33.0;;
53939;SDS011;39850;43.324;21.916;2023-04-03T13:52:33;32.0;;;34.0;;
53939;SDS011;39850;43.324;21.916;2023-04-03T13:57:17;32.0;;;34.0;;
53939;SDS011;39850;43.324;21.916;2023-04-03T14:02:28;32.0;;;34.0;;
53939;SDS011;39850;43.324;21.916;2023-04-03T14:07:06;32.0;;;34.0;;
53939;SDS011;39850;43.324;21.916;2023-04-03T14:11:47;32.0;;;34.0;;
53939;SDS011;39850;43.324;21.916;2023-04-03T14:16:42;32.0;;;34.0;;
53939;SDS011;39850;43.324;21.916;2023-04-03T14:21:22;33.0;;;34.0;;
53939;SDS011;39850;43.324;21.916;2023-04-03T14:26:00;33.0;;;34.0;;
53939;SDS011;39850;43.324;21.916;2023-04-03T14:58:33;35.0;;;35.0;;
53939;SDS011;39850;43.324;21.916;2023-04-03T15:03:21;35.0;;;35.0;;
53939;SDS011;39850;43.324;21.916;2023-04-03T15:07:59;35.0;;;34.0;;
53939;SDS011;39850;43.324;21.916;2023-04-03T15:12:36;35.0;;;34.0;;
53939;SDS011;39850;43.324;21.916;2023-04-03T15:17:22;35.0;;;34.0;;
53939;SDS011;39850;43.324;21.916;2023-04-03T15:22:00;35.0;;;34.0;;
53939;SDS011;39850;43.324;21.916;2023-04-03T15:26:38;35.0;;;34.0;;
53939;SDS011;39850;43.324;21.916;2023-04-03T15:31:15;32.0;;;32.0;;
53939;SDS011;39850;43.324;21.916;2023-04-03T15:35:52;32.0;;;32.0;;
53939;SDS011;39850;43.324;21.916;2023-04-03T15:40:29;28.0;;;29.0;;
53939;SDS011;39850;43.324;21.916;2023-04-03T15:45:09;28.0;;;29.0;;
53939;SDS011;39850;43.324;21.916;2023-04-03T16:22:05;24.0;;;26.0;;
53939;SDS011;39850;43.324;21.916;2023-04-03T16:26:42;24.0;;;26.0;;
53939;SDS011;39850;43.324;21.916;2023-04-03T16:31:23;24.0;;;25.0;;
53939;SDS011;39850;43.324;21.916;2023-04-03T16:36:06;24.0;;;25.0;;
53939;SDS011;39850;43.324;21.916;2023-04-03T16:40:43;23.0;;;24.0;;
53939;SDS011;39850;43.324;21.916;2023-04-03T16:45:21;23.0;;;24.0;;
53939;SDS011;39850;43.324;21.916;2023-04-03T16:49:58;22.0;;;24.0;;
53939;SDS011;39850;43.324;21.916;2023-04-03T16:54:35;22.0;;;24.0;;
53939;SDS011;39850;43.324;21.916;2023-04-03T16:59:12;22.0;;;23.0;;
53939;SDS011;39850;43.324;21.916;2023-04-03T17:03:49;22.0;;;23.0;;
53939;SDS011;39850;43.324;21.916;2023-04-03T17:40:44;22.0;;;23.0;;
53939;SDS011;39850;43.324;21.916;2023-04-03T17:45:21;22.0;;;23.0;;
53939;SDS011;39850;43.324;21.916;2023-04-03T17:49:57;21.0;;;22.0;;
53939;SDS011;39850;43.324;21.916;2023-04-03T17:54:34;21.0;;;22.0;;
53939;SDS011;39850;43.324;21.916;2023-04-03T17:59:11;21.0;;;22.0;;
53939;SDS011;39850;43.324;21.916;2023-04-03T18:03:57;21.0;;;22.0;;
53939;SDS011;39850;43.324;21.916;2023-04-03T18:08:50;20.0;;;22.0;;
53939;SDS011;39850;43.324;21.916;2023-04-03T18:13:32;20.0;;;22.0;;
53939;SDS011;39850;43.324;21.916;2023-04-03T18:18:10;20.0;;;22.0;;
53939;SDS011;39850;43.324;21.916;2023-04-03T18:22:48;21.0;;;22.0;;
53939;SDS011;39850;43.324;21.916;2023-04-03T18:27:28;21.0;;;22.0;;
53939;SDS011;39850;43.324;21.916;2023-04-03T19:00:10;16.0;;;17.0;;
53939;SDS011;39850;43.324;21.916;2023-04-03T19:04:49;16.0;;;17.0;;
53939;SDS011;39850;43.324;21.916;2023-04-03T19:09:27;16.0;;;16.0;;
53939;SDS011;39850;43.324;21.916;2023-04-03T19:14:06;16.0;;;16.0;;
53939;SDS011;39850;43.324;21.916;2023-04-03T19:18:42;16.0;;;17.0;;
53939;SDS011;39850;43.324;21.916;2023-04-03T19:23:19;16.0;;;17.0;;
53939;SDS011;39850;43.324;21.916;2023-04-03T19:27:55;16.0;;;17.0;;
53939;SDS011;39850;43.324;21.916;2023-04-03T19:32:32;16.0;;;16.0;;
53939;SDS011;39850;43.324;21.916;2023-04-03T19:37:08;16.0;;;16.0;;
53939;SDS011;39850;43.324;21.916;2023-04-03T19:41:45;16.0;;;17.0;;
53939;SDS011;39850;43.324;21.916;2023-04-03T19:46:27;16.0;;;17.0;;
53939;SDS011;39850;43.324;21.916;2023-04-03T20:23:22;16.0;;;13.0;;
53939;SDS011;39850;43.324;21.916;2023-04-03T20:27:59;16.0;;;13.0;;
53939;SDS011;39850;43.324;21.916;2023-04-03T20:32:36;14.0;;;12.0;;
53939;SDS011;39850;43.324;21.916;2023-04-03T20:37:13;14.0;;;12.0;;
53939;SDS011;39850;43.324;21.916;2023-04-03T20:41:50;12.0;;;11.0;;
53939;SDS011;39850;43.324;21.916;2023-04-03T20:46:27;12.0;;;11.0;;
53939;SDS011;39850;43.324;21.916;2023-04-03T20:51:17;12.0;;;10.0;;
53939;SDS011;39850;43.324;21.916;2023-04-03T20:55:59;12.0;;;10.0;;
53939;SDS011;39850;43.324;21.916;2023-04-03T21:00:36;12.0;;;10.0;;
53939;SDS011;39850;43.324;21.916;2023-04-03T21:05:17;12.0;;;10.0;;
53939;SDS011;39850;43.324;21.916;2023-04-03T21:39:34;9.0;;;7.0;;
53939;SDS011;39850;43.324;21.916;2023-04-03T21:44:11;9.0;;;7.0;;
53939;SDS011;39850;43.324;21.916;2023-04-03T21:48:48;9.0;;;7.0;;
53939;SDS011;39850;43.324;21.916;2023-04-03T21:53:24;10.0;;;8.0;;
53939;SDS011;39850;43.324;21.916;2023-04-03T21:58:01;10.0;;;8.0;;
53939;SDS011;39850;43.324;21.916;2023-04-03T22:02:39;9.0;;;8.0;;
53939;SDS011;39850;43.324;21.916;2023-04-03T22:07:16;9.0;;;8.0;;
53939;SDS011;39850;43.324;21.916;2023-04-03T22:11:53;10.0;;;8.0;;
53939;SDS011;39850;43.324;21.916;2023-04-03T22:16:29;10.0;;;8.0;;
53939;SDS011;39850;43.324;21.916;2023-04-03T22:21:06;9.0;;;8.0;;
53939;SDS011;39850;43.324;21.916;2023-04-03T22:25:43;9.0;;;8.0;;
53939;SDS011;39850;43.324;21.916;2023-04-03T23:02:49;8.0;;;6.0;;
53939;SDS011;39850;43.324;21.916;2023-04-03T23:07:25;8.0;;;6.0;;
53939;SDS011;39850;43.324;21.916;2023-04-03T23:12:02;8.0;;;6.0;;
53939;SDS011;39850;43.324;21.916;2023-04-03T23:16:39;8.0;;;6.0;;
53939;SDS011;39850;43.324;21.916;2023-04-03T23:21:16;8.0;;;6.0;;
53939;SDS011;39850;43.324;21.916;2023-04-03T23:25:59;8.0;;;6.0;;
53939;SDS011;39850;43.324;21.916;2023-04-03T23:30:37;8.0;;;6.0;;
53939;SDS011;39850;43.324;21.916;2023-04-03T23:35:15;8.0;;;6.0;;
53939;SDS011;39850;43.324;21.916;2023-04-03T23:39:52;8.0;;;6.0;;
53939;SDS011;39850;43.324;21.916;2023-04-03T23:44:29;8.0;;;6.0;;
53939;SDS011;39850;43.324;21.916;2023-04-03T23:49:06;8.0;;;6.0;;
